sensor_id;sensor_type;location;lat;lon;timestamp;pressure;altitude;pressure_sealevel;temperature;humidity
71424;BME280;59240;51.370;-0.486;2023-04-28T00:00:44;100740.81;;;12.68;100.00
71424;BME280;59240;51.370;-0.486;2023-04-28T00:03:12;100747.75;;;12.69;100.00
71424;BME280;59240;51.370;-0.486;2023-04-28T00:05:39;100743.38;;;12.69;100.00
71424;BME280;59240;51.370;-0.486;2023-04-28T00:08:06;100735.53;;;12.71;100.00
71424;BME280;59240;51.370;-0.486;2023-04-28T00:10:33;100730.28;;;12.71;100.00
71424;BME280;59240;51.370;-0.486;2023-04-28T00:12:59;100726.78;;;12.72;100.00
71424;BME280;59240;51.370;-0.486;2023-04-28T00:15:26;100718.00;;;12.73;100.00
71424;BME280;59240;51.370;-0.486;2023-04-28T00:17:52;100708.47;;;12.72;100.00
71424;BME280;59240;51.370;-0.486;2023-04-28T00:20:19;100708.56;;;12.69;100.00
71424;BME280;59240;51.370;-0.486;2023-04-28T00:22:46;100712.91;;;12.70;100.00
71424;BME280;59240;51.370;-0.486;2023-04-28T00:25:14;100709.38;;;12.71;100.00
71424;BME280;59240;51.370;-0.486;2023-04-28T00:27:41;100705.84;;;12.72;100.00
71424;BME280;59240;51.370;-0.486;2023-04-28T00:30:08;100707.56;;;12.73;100.00
71424;BME280;59240;51.370;-0.486;2023-04-28T00:32:34;100702.34;;;12.73;100.00
71424;BME280;59240;51.370;-0.486;2023-04-28T00:35:02;100706.66;;;12.74;100.00
71424;BME280;59240;51.370;-0.486;2023-04-28T00:37:29;100707.44;;;12.76;100.00
71424;BME280;59240;51.370;-0.486;2023-04-28T00:39:55;100700.44;;;12.78;100.00
71424;BME280;59240;51.370;-0.486;2023-04-28T00:42:24;100703.00;;;12.79;100.00
71424;BME280;59240;51.370;-0.486;2023-04-28T00:44:51;100691.78;;;12.76;100.00
71424;BME280;59240;51.370;-0.486;2023-04-28T00:47:18;100703.72;;;12.83;100.00
71424;BME280;59240;51.370;-0.486;2023-04-28T00:49:45;100705.47;;;12.84;100.00
71424;BME280;59240;51.370;-0.486;2023-04-28T00:52:12;100703.66;;;12.86;100.00
71424;BME280;59240;51.370;-0.486;2023-04-28T00:54:39;100700.00;;;12.90;100.00
71424;BME280;59240;51.370;-0.486;2023-04-28T00:57:09;100698.22;;;12.92;100.00
71424;BME280;59240;51.370;-0.486;2023-04-28T00:59:35;100703.34;;;12.95;100.00
71424;BME280;59240;51.370;-0.486;2023-04-28T01:02:02;100698.22;;;12.92;100.00
71424;BME280;59240;51.370;-0.486;2023-04-28T01:04:29;100711.09;;;12.98;100.00
71424;BME280;59240;51.370;-0.486;2023-04-28T01:06:57;100706.88;;;12.94;100.00
71424;BME280;59240;51.370;-0.486;2023-04-28T01:09:25;100704.06;;;13.00;100.00
71424;BME280;59240;51.370;-0.486;2023-04-28T01:11:52;100707.53;;;13.01;100.00
71424;BME280;59240;51.370;-0.486;2023-04-28T01:14:21;100701.31;;;13.03;100.00
71424;BME280;59240;51.370;-0.486;2023-04-28T01:16:49;100706.47;;;13.06;100.00
71424;BME280;59240;51.370;-0.486;2023-04-28T01:19:19;100696.09;;;13.03;100.00
71424;BME280;59240;51.370;-0.486;2023-04-28T01:21:48;100708.97;;;13.09;100.00
71424;BME280;59240;51.370;-0.486;2023-04-28T01:24:15;100701.13;;;13.09;100.00
71424;BME280;59240;51.370;-0.486;2023-04-28T01:26:43;100688.91;;;13.10;100.00
71424;BME280;59240;51.370;-0.486;2023-04-28T01:29:13;100699.34;;;13.10;100.00
71424;BME280;59240;51.370;-0.486;2023-04-28T01:31:40;100699.31;;;13.11;100.00
71424;BME280;59240;51.370;-0.486;2023-04-28T01:34:06;100702.81;;;13.10;100.00
71424;BME280;59240;51.370;-0.486;2023-04-28T01:36:33;100695.03;;;13.09;100.00
71424;BME280;59240;51.370;-0.486;2023-04-28T01:39:03;100699.22;;;13.14;100.00
71424;BME280;59240;51.370;-0.486;2023-04-28T01:41:29;100707.84;;;13.17;100.00
71424;BME280;59240;51.370;-0.486;2023-04-28T01:43:56;100689.66;;;13.13;100.00
71424;BME280;59240;51.370;-0.486;2023-04-28T01:46:23;100704.28;;;13.21;100.00
71424;BME280;59240;51.370;-0.486;2023-04-28T01:48:50;100700.75;;;13.22;100.00
71424;BME280;59240;51.370;-0.486;2023-04-28T01:51:16;100700.75;;;13.22;100.00
71424;BME280;59240;51.370;-0.486;2023-04-28T01:53:43;100697.13;;;13.26;100.00
71424;BME280;59240;51.370;-0.486;2023-04-28T01:56:09;100704.84;;;13.29;100.00
71424;BME280;59240;51.370;-0.486;2023-04-28T01:58:36;100703.94;;;13.30;100.00
71424;BME280;59240;51.370;-0.486;2023-04-28T02:01:02;100704.91;;;13.27;100.00
71424;BME280;59240;51.370;-0.486;2023-04-28T02:03:30;100711.00;;;13.28;100.00
71424;BME280;59240;51.370;-0.486;2023-04-28T02:05:59;100693.59;;;13.27;100.00
71424;BME280;59240;51.370;-0.486;2023-04-28T02:08:26;100703.09;;;13.29;100.00
71424;BME280;59240;51.370;-0.486;2023-04-28T02:10:52;100709.19;;;13.30;100.00
71424;BME280;59240;51.370;-0.486;2023-04-28T02:13:21;100710.94;;;13.29;100.00
71424;BME280;59240;51.370;-0.486;2023-04-28T02:15:48;100707.41;;;13.30;100.00
71424;BME280;59240;51.370;-0.486;2023-04-28T02:18:15;100712.69;;;13.29;100.00
71424;BME280;59240;51.370;-0.486;2023-04-28T02:20:41;100711.78;;;13.30;100.00
71424;BME280;59240;51.370;-0.486;2023-04-28T02:23:08;100719.63;;;13.30;100.00
71424;BME280;59240;51.370;-0.486;2023-04-28T02:25:34;100722.25;;;13.30;100.00
71424;BME280;59240;51.370;-0.486;2023-04-28T02:28:01;100717.03;;;13.30;100.00
71424;BME280;59240;51.370;-0.486;2023-04-28T02:30:28;100711.91;;;13.27;100.00
71424;BME280;59240;51.370;-0.486;2023-04-28T02:32:54;100718.72;;;13.31;100.00
71424;BME280;59240;51.370;-0.486;2023-04-28T02:35:21;100713.47;;;13.32;100.00
71424;BME280;59240;51.370;-0.486;2023-04-28T02:37:48;100705.50;;;13.35;100.00
71424;BME280;59240;51.370;-0.486;2023-04-28T02:40:14;100712.50;;;13.35;100.00
71424;BME280;59240;51.370;-0.486;2023-04-28T02:42:41;100714.19;;;13.36;100.00
71424;BME280;59240;51.370;-0.486;2023-04-28T02:45:07;100703.75;;;13.36;100.00
71424;BME280;59240;51.370;-0.486;2023-04-28T02:47:34;100715.06;;;13.36;100.00
71424;BME280;59240;51.370;-0.486;2023-04-28T02:50:00;100713.47;;;13.32;100.00
71424;BME280;59240;51.370;-0.486;2023-04-28T02:52:27;100714.31;;;13.33;100.00
71424;BME280;59240;51.370;-0.486;2023-04-28T02:54:56;100714.31;;;13.33;100.00
71424;BME280;59240;51.370;-0.486;2023-04-28T02:57:23;100709.16;;;13.31;100.00
71424;BME280;59240;51.370;-0.486;2023-04-28T02:59:49;100714.31;;;13.33;100.00
71424;BME280;59240;51.370;-0.486;2023-04-28T03:02:16;100716.94;;;13.33;100.00
71424;BME280;59240;51.370;-0.486;2023-04-28T03:04:42;100723.09;;;13.32;100.00
71424;BME280;59240;51.370;-0.486;2023-04-28T03:07:09;100720.50;;;13.30;100.00
71424;BME280;59240;51.370;-0.486;2023-04-28T03:09:36;100724.03;;;13.29;100.00
71424;BME280;59240;51.370;-0.486;2023-04-28T03:12:02;100722.31;;;13.28;100.00
71424;BME280;59240;51.370;-0.486;2023-04-28T03:14:29;100724.19;;;13.25;100.00
71424;BME280;59240;51.370;-0.486;2023-04-28T03:16:56;100731.28;;;13.21;100.00
71424;BME280;59240;51.370;-0.486;2023-04-28T03:19:23;100718.22;;;13.20;100.00
71424;BME280;59240;51.370;-0.486;2023-04-28T03:21:49;100715.59;;;13.20;100.00
71424;BME280;59240;51.370;-0.486;2023-04-28T03:24:16;100719.22;;;13.15;100.00
71424;BME280;59240;51.370;-0.486;2023-04-28T03:26:43;100725.38;;;13.14;100.00
71424;BME280;59240;51.370;-0.486;2023-04-28T03:29:09;100722.75;;;13.14;100.00
71424;BME280;59240;51.370;-0.486;2023-04-28T03:31:36;100721.97;;;13.12;100.00
71424;BME280;59240;51.370;-0.486;2023-04-28T03:34:02;100718.50;;;13.10;100.00
71424;BME280;59240;51.370;-0.486;2023-04-28T03:36:29;100720.34;;;13.08;100.00
71424;BME280;59240;51.370;-0.486;2023-04-28T03:38:57;100714.25;;;13.08;100.00
71424;BME280;59240;51.370;-0.486;2023-04-28T03:41:23;100719.53;;;13.06;100.00
71424;BME280;59240;51.370;-0.486;2023-04-28T03:43:50;100711.69;;;13.06;100.00
71424;BME280;59240;51.370;-0.486;2023-04-28T03:46:18;100702.28;;;13.01;100.00
71424;BME280;59240;51.370;-0.486;2023-04-28T03:48:45;100714.38;;;13.05;100.00
71424;BME280;59240;51.370;-0.486;2023-04-28T03:51:11;100720.66;;;12.99;100.00
71424;BME280;59240;51.370;-0.486;2023-04-28T03:53:38;100712.81;;;12.99;100.00
71424;BME280;59240;51.370;-0.486;2023-04-28T03:56:05;100714.63;;;12.97;100.00
71424;BME280;59240;51.370;-0.486;2023-04-28T03:58:32;100714.63;;;12.97;100.00
71424;BME280;59240;51.370;-0.486;2023-04-28T04:00:58;100719.84;;;12.97;100.00
71424;BME280;59240;51.370;-0.486;2023-04-28T04:03:26;100712.09;;;12.94;100.00
71424;BME280;59240;51.370;-0.486;2023-04-28T04:05:53;100729.69;;;12.89;100.00
71424;BME280;59240;51.370;-0.486;2023-04-28T04:08:21;100723.59;;;12.88;100.00
71424;BME280;59240;51.370;-0.486;2023-04-28T04:10:47;100726.28;;;12.87;100.00
71424;BME280;59240;51.370;-0.486;2023-04-28T04:13:14;100731.50;;;12.87;100.00
71424;BME280;59240;51.370;-0.486;2023-04-28T04:15:40;100723.97;;;12.78;100.00
71424;BME280;59240;51.370;-0.486;2023-04-28T04:18:07;100727.31;;;12.81;100.00
71424;BME280;59240;51.370;-0.486;2023-04-28T04:20:33;100728.22;;;12.80;100.00
71424;BME280;59240;51.370;-0.486;2023-04-28T04:23:00;100738.63;;;12.82;100.00
71424;BME280;59240;51.370;-0.486;2023-04-28T04:25:27;100737.78;;;12.81;100.00
71424;BME280;59240;51.370;-0.486;2023-04-28T04:27:53;100735.22;;;12.80;100.00
71424;BME280;59240;51.370;-0.486;2023-04-28T04:30:20;100742.16;;;12.81;100.00
71424;BME280;59240;51.370;-0.486;2023-04-28T04:32:50;100744.69;;;12.84;100.00
71424;BME280;59240;51.370;-0.486;2023-04-28T04:35:16;100745.56;;;12.83;100.00
71424;BME280;59240;51.370;-0.486;2023-04-28T04:37:43;100750.78;;;12.83;100.00
71424;BME280;59240;51.370;-0.486;2023-04-28T04:40:10;100754.31;;;12.82;100.00
71424;BME280;59240;51.370;-0.486;2023-04-28T04:42:37;100754.31;;;12.82;100.00
71424;BME280;59240;51.370;-0.486;2023-04-28T04:45:04;100756.03;;;12.83;100.00
71424;BME280;59240;51.370;-0.486;2023-04-28T04:47:31;100749.94;;;12.82;100.00
71424;BME280;59240;51.370;-0.486;2023-04-28T04:49:57;100757.75;;;12.84;100.00
71424;BME280;59240;51.370;-0.486;2023-04-28T04:52:24;100765.50;;;12.87;100.00
71424;BME280;59240;51.370;-0.486;2023-04-28T04:54:51;100765.50;;;12.87;100.00
71424;BME280;59240;51.370;-0.486;2023-04-28T04:57:17;100762.97;;;12.84;100.00
71424;BME280;59240;51.370;-0.486;2023-04-28T04:59:46;100760.38;;;12.84;100.00
71424;BME280;59240;51.370;-0.486;2023-04-28T05:02:13;100761.22;;;12.84;100.00
71424;BME280;59240;51.370;-0.486;2023-04-28T05:04:40;100763.78;;;12.86;100.00
71424;BME280;59240;51.370;-0.486;2023-04-28T05:07:06;100765.59;;;12.84;100.00
71424;BME280;59240;51.370;-0.486;2023-04-28T05:09:33;100777.84;;;12.82;100.00
71424;BME280;59240;51.370;-0.486;2023-04-28T05:12:00;100770.84;;;12.82;100.00
71424;BME280;59240;51.370;-0.486;2023-04-28T05:14:26;100770.81;;;12.84;100.00
71424;BME280;59240;51.370;-0.486;2023-04-28T05:16:53;100775.88;;;12.88;100.00
71424;BME280;59240;51.370;-0.486;2023-04-28T05:19:19;100777.56;;;12.91;100.00
71424;BME280;59240;51.370;-0.486;2023-04-28T05:21:46;100782.69;;;12.94;100.00
71424;BME280;59240;51.370;-0.486;2023-04-28T05:24:20;100775.66;;;12.96;100.00
71424;BME280;59240;51.370;-0.486;2023-04-28T05:26:50;100762.88;;;12.87;100.00
71424;BME280;59240;51.370;-0.486;2023-04-28T05:29:17;100776.47;;;12.98;100.00
71424;BME280;59240;51.370;-0.486;2023-04-28T05:31:43;100779.09;;;12.98;100.00
71424;BME280;59240;51.370;-0.486;2023-04-28T05:34:10;100776.56;;;12.95;100.00
71424;BME280;59240;51.370;-0.486;2023-04-28T05:36:37;100769.63;;;12.94;100.00
71424;BME280;59240;51.370;-0.486;2023-04-28T05:39:03;100777.41;;;12.96;100.00
71424;BME280;59240;51.370;-0.486;2023-04-28T05:41:33;100767.19;;;12.88;100.00
71424;BME280;59240;51.370;-0.486;2023-04-28T05:44:00;100788.44;;;13.05;100.00
71424;BME280;59240;51.370;-0.486;2023-04-28T05:46:29;100797.88;;;13.11;100.00
71424;BME280;59240;51.370;-0.486;2023-04-28T05:48:56;100795.19;;;13.12;100.00
71424;BME280;59240;51.370;-0.486;2023-04-28T05:51:23;100804.69;;;13.15;100.00
71424;BME280;59240;51.370;-0.486;2023-04-28T05:53:53;100802.94;;;13.15;100.00
71424;BME280;59240;51.370;-0.486;2023-04-28T05:56:19;100810.78;;;13.15;100.00
71424;BME280;59240;51.370;-0.486;2023-04-28T05:58:46;100803.84;;;13.14;100.00
71424;BME280;59240;51.370;-0.486;2023-04-28T06:01:15;100812.41;;;13.20;100.00
71424;BME280;59240;51.370;-0.486;2023-04-28T06:03:42;100814.09;;;13.22;100.00
71424;BME280;59240;51.370;-0.486;2023-04-28T06:06:11;100809.63;;;13.26;100.00
71424;BME280;59240;51.370;-0.486;2023-04-28T06:08:37;100818.31;;;13.26;100.00
71424;BME280;59240;51.370;-0.486;2023-04-28T06:11:04;100815.66;;;13.28;100.00
71424;BME280;59240;51.370;-0.486;2023-04-28T06:13:31;100824.28;;;13.30;100.00
71424;BME280;59240;51.370;-0.486;2023-04-28T06:15:58;100823.31;;;13.34;100.00
71424;BME280;59240;51.370;-0.486;2023-04-28T06:18:25;100828.47;;;13.35;100.00
71424;BME280;59240;51.370;-0.486;2023-04-28T06:20:52;100830.91;;;13.41;100.00
71424;BME280;59240;51.370;-0.486;2023-04-28T06:23:20;100839.41;;;13.48;100.00
71424;BME280;59240;51.370;-0.486;2023-04-28T06:25:47;100839.28;;;13.51;100.00
71424;BME280;59240;51.370;-0.486;2023-04-28T06:28:13;100833.97;;;13.54;100.00
71424;BME280;59240;51.370;-0.486;2023-04-28T06:30:40;100845.09;;;13.61;100.00
71424;BME280;59240;51.370;-0.486;2023-04-28T06:33:07;100852.75;;;13.67;100.00
71424;BME280;59240;51.370;-0.486;2023-04-28T06:35:34;100850.06;;;13.68;100.00
71424;BME280;59240;51.370;-0.486;2023-04-28T06:38:01;100853.34;;;13.75;100.00
71424;BME280;59240;51.370;-0.486;2023-04-28T06:40:29;100849.84;;;13.75;100.00
71424;BME280;59240;51.370;-0.486;2023-04-28T06:42:55;100847.44;;;13.68;100.00
71424;BME280;59240;51.370;-0.486;2023-04-28T06:45:22;100849.16;;;13.69;100.00
71424;BME280;59240;51.370;-0.486;2023-04-28T06:47:48;100850.78;;;13.74;100.00
71424;BME280;59240;51.370;-0.486;2023-04-28T06:50:17;100854.31;;;13.73;100.00
71424;BME280;59240;51.370;-0.486;2023-04-28T06:52:44;100859.41;;;13.76;100.00
71424;BME280;59240;51.370;-0.486;2023-04-28T06:55:14;100858.41;;;13.80;100.00
71424;BME280;59240;51.370;-0.486;2023-04-28T06:57:43;100856.09;;;13.71;100.00
71424;BME280;59240;51.370;-0.486;2023-04-28T07:00:10;100867.97;;;13.81;100.00
71424;BME280;59240;51.370;-0.486;2023-04-28T07:02:37;100876.63;;;13.83;100.00
71424;BME280;59240;51.370;-0.486;2023-04-28T07:05:05;100864.66;;;13.76;100.00
71424;BME280;59240;51.370;-0.486;2023-04-28T07:07:31;100883.00;;;13.76;100.00
71424;BME280;59240;51.370;-0.486;2023-04-28T07:09:58;100878.66;;;13.75;100.00
71424;BME280;59240;51.370;-0.486;2023-04-28T07:12:26;100877.03;;;13.71;100.00
71424;BME280;59240;51.370;-0.486;2023-04-28T07:14:52;100880.50;;;13.71;100.00
71424;BME280;59240;51.370;-0.486;2023-04-28T07:17:19;100878.66;;;13.75;100.00
71424;BME280;59240;51.370;-0.486;2023-04-28T07:19:45;100887.31;;;13.77;100.00
71424;BME280;59240;51.370;-0.486;2023-04-28T07:22:12;100886.34;;;13.79;100.00
71424;BME280;59240;51.370;-0.486;2023-04-28T07:24:38;100879.09;;;13.87;100.00
71424;BME280;59240;51.370;-0.486;2023-04-28T07:27:05;100881.34;;;13.98;100.00
71424;BME280;59240;51.370;-0.486;2023-04-28T07:29:31;100888.66;;;14.13;100.00
71424;BME280;59240;51.370;-0.486;2023-04-28T07:32:00;100892.03;;;14.17;100.00
71424;BME280;59240;51.370;-0.486;2023-04-28T07:34:31;100896.22;;;14.22;100.00
71424;BME280;59240;51.370;-0.486;2023-04-28T07:36:57;100896.00;;;14.29;100.00
71424;BME280;59240;51.370;-0.486;2023-04-28T07:39:24;100896.31;;;14.44;100.00
71424;BME280;59240;51.370;-0.486;2023-04-28T07:41:51;100896.84;;;14.54;100.00
71424;BME280;59240;51.370;-0.486;2023-04-28T07:44:18;100908.72;;;14.64;100.00
71424;BME280;59240;51.370;-0.486;2023-04-28T07:46:45;100904.97;;;14.71;100.00
71424;BME280;59240;51.370;-0.486;2023-04-28T07:49:12;100909.63;;;14.87;100.00
71424;BME280;59240;51.370;-0.486;2023-04-28T07:51:38;100906.41;;;15.02;100.00
71424;BME280;59240;51.370;-0.486;2023-04-28T07:54:05;100913.47;;;15.23;100.00
71424;BME280;59240;51.370;-0.486;2023-04-28T07:56:34;100924.78;;;15.25;100.00
71424;BME280;59240;51.370;-0.486;2023-04-28T07:59:00;100915.44;;;15.18;100.00
71424;BME280;59240;51.370;-0.486;2023-04-28T08:01:27;100920.78;;;15.15;100.00
71424;BME280;59240;51.370;-0.486;2023-04-28T08:03:56;100924.44;;;15.11;100.00
71424;BME280;59240;51.370;-0.486;2023-04-28T08:06:25;100934.19;;;15.08;100.00
71424;BME280;59240;51.370;-0.486;2023-04-28T08:08:53;100936.75;;;15.09;100.00
71424;BME280;59240;51.370;-0.486;2023-04-28T08:11:19;100931.28;;;15.15;100.00
71424;BME280;59240;51.370;-0.486;2023-04-28T08:13:47;100931.81;;;15.23;100.00
71424;BME280;59240;51.370;-0.486;2023-04-28T08:16:14;100936.97;;;15.26;100.00
71424;BME280;59240;51.370;-0.486;2023-04-28T08:18:41;100937.28;;;15.41;100.00
71424;BME280;59240;51.370;-0.486;2023-04-28T08:21:08;100930.75;;;15.51;100.00
71424;BME280;59240;51.370;-0.486;2023-04-28T08:23:37;100923.63;;;15.54;100.00
71424;BME280;59240;51.370;-0.486;2023-04-28T08:26:04;100939.06;;;15.84;100.00
71424;BME280;59240;51.370;-0.486;2023-04-28T08:28:31;100939.69;;;16.11;100.00
71424;BME280;59240;51.370;-0.486;2023-04-28T08:30:59;100930.88;;;16.12;100.00
71424;BME280;59240;51.370;-0.486;2023-04-28T08:33:26;100939.63;;;16.12;100.00
71424;BME280;59240;51.370;-0.486;2023-04-28T08:35:56;100941.88;;;16.22;100.00
71424;BME280;59240;51.370;-0.486;2023-04-28T08:38:22;100946.19;;;16.23;100.00
71424;BME280;59240;51.370;-0.486;2023-04-28T08:40:50;100939.06;;;16.06;100.00
71424;BME280;59240;51.370;-0.486;2023-04-28T08:43:17;100950.13;;;15.92;100.00
71424;BME280;59240;51.370;-0.486;2023-04-28T08:45:46;100944.63;;;15.76;100.00
71424;BME280;59240;51.370;-0.486;2023-04-28T08:48:20;100957.47;;;15.62;100.00
71424;BME280;59240;51.370;-0.486;2023-04-28T08:50:49;100953.19;;;15.59;100.00
71424;BME280;59240;51.370;-0.486;2023-04-28T08:53:24;100957.38;;;15.65;100.00
71424;BME280;59240;51.370;-0.486;2023-04-28T08:55:55;100954.66;;;15.67;100.00
71424;BME280;59240;51.370;-0.486;2023-04-28T08:58:23;100938.38;;;15.57;100.00
71424;BME280;59240;51.370;-0.486;2023-04-28T09:00:51;100951.56;;;15.55;100.00
71424;BME280;59240;51.370;-0.486;2023-04-28T09:03:20;100964.53;;;15.60;100.00
71424;BME280;59240;51.370;-0.486;2023-04-28T09:05:47;100962.06;;;15.55;100.00
71424;BME280;59240;51.370;-0.486;2023-04-28T09:08:14;100972.50;;;15.57;100.00
71424;BME280;59240;51.370;-0.486;2023-04-28T09:10:41;100979.50;;;15.58;100.00
71424;BME280;59240;51.370;-0.486;2023-04-28T09:13:07;100958.66;;;15.53;100.00
71424;BME280;59240;51.370;-0.486;2023-04-28T09:15:36;100984.78;;;15.56;100.00
71424;BME280;59240;51.370;-0.486;2023-04-28T09:18:04;100983.25;;;15.51;100.00
71424;BME280;59240;51.370;-0.486;2023-04-28T09:20:34;100976.13;;;15.32;100.00
71424;BME280;59240;51.370;-0.486;2023-04-28T09:23:17;100984.59;;;15.39;100.00
71424;BME280;59240;51.370;-0.486;2023-04-28T09:28:21;100997.22;;;15.29;100.00
71424;BME280;59240;51.370;-0.486;2023-04-28T09:30:48;100990.38;;;15.25;100.00
71424;BME280;59240;51.370;-0.486;2023-04-28T09:33:15;100999.72;;;15.32;100.00
71424;BME280;59240;51.370;-0.486;2023-04-28T09:35:42;100996.97;;;15.36;100.00
71424;BME280;59240;51.370;-0.486;2023-04-28T09:38:10;100995.41;;;15.31;100.00
71424;BME280;59240;51.370;-0.486;2023-04-28T09:40:59;100998.59;;;15.40;100.00
71424;BME280;59240;51.370;-0.486;2023-04-28T09:43:31;100995.59;;;15.49;100.00
71424;BME280;59240;51.370;-0.486;2023-04-28T09:46:00;100997.75;;;15.61;100.00
71424;BME280;59240;51.370;-0.486;2023-04-28T09:48:32;100989.59;;;15.69;100.00
71424;BME280;59240;51.370;-0.486;2023-04-28T09:51:01;101005.47;;;15.88;100.00
71424;BME280;59240;51.370;-0.486;2023-04-28T09:53:29;100995.81;;;15.88;100.00
71424;BME280;59240;51.370;-0.486;2023-04-28T09:56:00;100995.09;;;15.84;100.00
71424;BME280;59240;51.370;-0.486;2023-04-28T09:58:28;101015.84;;;15.91;100.00
71424;BME280;59240;51.370;-0.486;2023-04-28T10:00:56;101015.84;;;15.91;100.00
71424;BME280;59240;51.370;-0.486;2023-04-28T10:03:27;101019.53;;;15.86;100.00
71424;BME280;59240;51.370;-0.486;2023-04-28T10:05:56;101025.03;;;15.80;100.00
71424;BME280;59240;51.370;-0.486;2023-04-28T10:08:25;101014.38;;;15.62;100.00
71424;BME280;59240;51.370;-0.486;2023-04-28T10:10:53;101025.94;;;15.56;100.00
71424;BME280;59240;51.370;-0.486;2023-04-28T10:13:21;101026.69;;;15.59;100.00
71424;BME280;59240;51.370;-0.486;2023-04-28T10:15:50;101032.91;;;15.80;100.00
71424;BME280;59240;51.370;-0.486;2023-04-28T10:18:17;101030.47;;;15.98;100.00
71424;BME280;59240;51.370;-0.486;2023-04-28T10:20:48;101025.38;;;16.15;100.00
71424;BME280;59240;51.370;-0.486;2023-04-28T10:26:12;101031.59;;;16.55;100.00
71424;BME280;59240;51.370;-0.486;2023-04-28T10:28:46;101038.31;;;16.62;100.00
71424;BME280;59240;51.370;-0.486;2023-04-28T10:31:18;101041.97;;;16.58;100.00
71424;BME280;59240;51.370;-0.486;2023-04-28T10:33:49;101050.38;;;16.46;100.00
71424;BME280;59240;51.370;-0.486;2023-04-28T10:36:55;101062.47;;;16.29;100.00
71424;BME280;59240;51.370;-0.486;2023-04-28T10:39:23;101060.56;;;16.11;100.00
71424;BME280;59240;51.370;-0.486;2023-04-28T10:41:52;101065.19;;;16.06;100.00
71424;BME280;59240;51.370;-0.486;2023-04-28T10:47:01;101077.28;;;16.10;100.00
71424;BME280;59240;51.370;-0.486;2023-04-28T10:55:25;101083.50;;;16.29;100.00
71424;BME280;59240;51.370;-0.486;2023-04-28T11:00:44;101080.47;;;16.38;100.00
71424;BME280;59240;51.370;-0.486;2023-04-28T11:16:52;101082.25;;;16.80;100.00
71424;BME280;59240;51.370;-0.486;2023-04-28T11:19:23;101082.00;;;16.86;100.00
71424;BME280;59240;51.370;-0.486;2023-04-28T11:21:52;101085.16;;;16.94;100.00
71424;BME280;59240;51.370;-0.486;2023-04-28T11:24:18;101081.72;;;16.92;100.00
71424;BME280;59240;51.370;-0.486;2023-04-28T11:26:45;101075.28;;;16.79;100.00
71424;BME280;59240;51.370;-0.486;2023-04-28T11:29:12;101077.13;;;16.77;100.00
71424;BME280;59240;51.370;-0.486;2023-04-28T11:31:48;101089.38;;;16.78;100.00
71424;BME280;59240;51.370;-0.486;2023-04-28T11:34:19;101094.78;;;16.75;100.00
71424;BME280;59240;51.370;-0.486;2023-04-28T11:36:49;101095.00;;;16.69;100.00
71424;BME280;59240;51.370;-0.486;2023-04-28T11:39:30;101079.22;;;16.69;100.00
71424;BME280;59240;51.370;-0.486;2023-04-28T11:42:01;101104.63;;;16.90;100.00
71424;BME280;59240;51.370;-0.486;2023-04-28T11:44:34;101101.09;;;16.91;100.00
71424;BME280;59240;51.370;-0.486;2023-04-28T11:47:02;101102.78;;;16.92;100.00
71424;BME280;59240;51.370;-0.486;2023-04-28T11:49:31;101105.41;;;16.92;100.00
71424;BME280;59240;51.370;-0.486;2023-04-28T11:52:06;101103.19;;;16.83;100.00
71424;BME280;59240;51.370;-0.486;2023-04-28T11:54:33;101099.44;;;16.67;100.00
71424;BME280;59240;51.370;-0.486;2023-04-28T11:57:00;101117.34;;;16.59;100.00
71424;BME280;59240;51.370;-0.486;2023-04-28T11:59:31;101118.41;;;16.55;100.00
71424;BME280;59240;51.370;-0.486;2023-04-28T12:02:01;101122.13;;;16.49;100.00
71424;BME280;59240;51.370;-0.486;2023-04-28T12:04:33;101123.16;;;16.45;100.00
71424;BME280;59240;51.370;-0.486;2023-04-28T12:09:33;101134.03;;;16.58;99.83
71424;BME280;59240;51.370;-0.486;2023-04-28T12:12:04;101125.50;;;16.75;100.00
71424;BME280;59240;51.370;-0.486;2023-04-28T12:14:33;101117.97;;;16.86;100.00
71424;BME280;59240;51.370;-0.486;2023-04-28T12:17:23;101130.28;;;17.06;100.00
71424;BME280;59240;51.370;-0.486;2023-04-28T12:19:50;101125.69;;;17.11;97.51
71424;BME280;59240;51.370;-0.486;2023-04-28T12:22:17;101133.44;;;17.14;97.62
71424;BME280;59240;51.370;-0.486;2023-04-28T12:24:43;101131.47;;;17.19;97.60
71424;BME280;59240;51.370;-0.486;2023-04-28T12:27:19;101139.88;;;17.27;100.00
71424;BME280;59240;51.370;-0.486;2023-04-28T12:29:50;101147.91;;;17.44;98.03
71424;BME280;59240;51.370;-0.486;2023-04-28T12:32:17;101150.50;;;17.65;97.05
71424;BME280;59240;51.370;-0.486;2023-04-28T12:34:45;101150.88;;;17.76;96.72
71424;BME280;59240;51.370;-0.486;2023-04-28T12:37:11;101144.56;;;17.80;96.08
71424;BME280;59240;51.370;-0.486;2023-04-28T12:39:40;101149.38;;;17.89;100.00
71424;BME280;59240;51.370;-0.486;2023-04-28T12:42:07;101151.38;;;17.84;96.45
71424;BME280;59240;51.370;-0.486;2023-04-28T12:44:35;101151.38;;;17.84;98.38
71424;BME280;59240;51.370;-0.486;2023-04-28T12:47:04;101159.28;;;17.84;96.07
71424;BME280;59240;51.370;-0.486;2023-04-28T12:49:32;101152.66;;;17.94;95.48
71424;BME280;59240;51.370;-0.486;2023-04-28T12:52:00;101155.38;;;17.93;94.48
71424;BME280;59240;51.370;-0.486;2023-04-28T12:54:26;101160.78;;;17.90;94.25
71424;BME280;59240;51.370;-0.486;2023-04-28T12:56:53;101155.38;;;17.93;93.36
71424;BME280;59240;51.370;-0.486;2023-04-28T12:59:20;101164.56;;;18.03;94.51
71424;BME280;59240;51.370;-0.486;2023-04-28T13:01:50;101158.78;;;18.14;93.78
71424;BME280;59240;51.370;-0.486;2023-04-28T13:04:17;101166.03;;;18.27;93.02
71424;BME280;59240;51.370;-0.486;2023-04-28T13:06:44;101162.44;;;18.47;92.48